Time;durP1;ratioP1;P1;durP2;ratioP2;P2;SDS_P1;SDS_P2;PMS_P1;PMS_P2;Temp;Humidity;BMP_temperature;BMP_pressure;BME280_temperature;BME280_humidity;BME280_pressure;Samples;Min_cycle;Max_cycle;Signal;HPM_P1;HPM_P2
2022/07/03 00:01:27;;;;;;;3.23;2.57;;;;;;;16.73;98.98;98350.91;5135586;27;20706;-76
2022/07/03 00:03:55;;;;;;;2.77;2.53;;;;;;;16.64;99.93;98343.72;5135411;27;20209;-76
2022/07/03 00:06:22;;;;;;;2.73;2.50;;;;;;;16.57;100.00;98344.44;5135479;27;20209;-77
2022/07/03 00:08:48;;;;;;;3.10;2.80;;;;;;;16.52;100.00;98344.81;5135358;27;20300;-76
2022/07/03 00:11:16;;;;;;;3.30;3.00;;;;;;;16.51;100.00;98342.31;5135690;27;20210;-76
2022/07/03 00:13:42;;;;;;;2.53;2.33;;;;;;;16.51;100.00;98344.97;5135507;27;20208;-76
2022/07/03 00:16:09;;;;;;;3.17;2.87;;;;;;;16.51;100.00;98345.81;5135280;27;20237;-76
2022/07/03 00:18:35;;;;;;;3.13;2.67;;;;;;;16.50;100.00;98349.47;5135957;27;20665;-76
2022/07/03 00:21:06;;;;;;;3.53;2.70;;;;;;;16.55;100.00;98347.22;5133739;27;20215;-76
2022/07/03 00:23:40;;;;;;;3.57;2.80;;;;;;;16.62;100.00;98348.34;5135557;27;20205;-76
2022/07/03 00:26:09;;;;;;;2.60;2.40;;;;;;;16.67;100.00;98345.25;5135753;27;20579;-77
2022/07/03 00:28:36;;;;;;;3.87;2.70;;;;;;;16.65;100.00;98342.72;5135538;27;20213;-76
2022/07/03 00:31:03;;;;;;;2.73;2.50;;;;;;;16.70;99.79;98351.16;5135473;27;20209;-76
2022/07/03 00:33:33;;;;;;;3.17;2.83;;;;;;;16.68;99.86;98345.13;5135267;27;20213;-77
2022/07/03 00:36:00;;;;;;;2.90;2.40;;;;;;;16.66;100.00;98344.44;5135299;27;20239;-76
2022/07/03 00:38:28;;;;;;;3.80;2.80;;;;;;;16.64;100.00;98351.72;5135081;27;20317;-75
2022/07/03 00:40:55;;;;;;;2.90;2.70;;;;;;;16.65;100.00;98348.06;5134934;27;20213;-75
2022/07/03 00:43:22;;;;;;;3.40;2.87;;;;;;;16.64;100.00;98346.38;5134787;27;20210;-76
2022/07/03 00:45:50;;;;;;;3.70;2.80;;;;;;;16.67;100.00;98348.78;5134872;27;20215;-76
2022/07/03 00:48:19;;;;;;;3.43;2.83;;;;;;;16.68;100.00;98346.94;5132966;27;20209;-76
2022/07/03 00:50:47;;;;;;;3.77;2.70;;;;;;;16.72;98.16;98343.88;5134471;27;20229;-76
2022/07/03 00:53:19;;;;;;;2.60;2.40;;;;;;;16.72;97.93;98348.38;5131066;27;20576;-76
2022/07/03 00:55:48;;;;;;;3.00;2.70;;;;;;;16.69;97.83;98344.16;5132846;27;20240;-75
2022/07/03 00:58:18;;;;;;;3.73;2.87;;;;;;;16.66;98.93;98349.78;5120459;27;20247;-75
2022/07/03 01:00:45;;;;;;;3.70;2.47;;;;;;;16.66;99.77;98349.78;5120311;27;20221;-75
2022/07/03 01:03:16;;;;;;;2.80;2.60;;;;;;;16.60;99.93;98347.66;5120587;27;20218;-75
2022/07/03 01:05:45;;;;;;;3.10;2.80;;;;;;;16.52;100.00;98350.16;5123337;27;20213;-75
2022/07/03 01:08:20;;;;;;;3.23;2.93;;;;;;;16.43;100.00;98353.66;5123249;27;20583;-75
2022/07/03 01:10:54;;;;;;;3.57;3.03;;;;;;;16.36;100.00;98347.16;5120422;27;20220;-75
2022/07/03 01:13:28;;;;;;;3.30;3.00;;;;;;;16.32;100.00;98351.06;5129814;27;20236;-75
2022/07/03 01:16:04;;;;;;;3.17;2.77;;;;;;;16.28;100.00;98354.97;5133368;27;20235;-75
2022/07/03 01:18:41;;;;;;;3.30;2.90;;;;;;;16.18;100.00;98359.44;5134165;27;20205;-75
2022/07/03 01:21:10;;;;;;;4.33;3.40;;;;;;;16.09;100.00;98360.25;5133730;27;20205;-75
2022/07/03 01:23:56;;;;;;;3.57;3.27;;;;;;;16.02;100.00;98344.91;5133761;27;20705;-75
2022/07/03 01:26:29;;;;;;;3.70;3.40;;;;;;;15.98;100.00;98340.00;5134071;27;20209;-75
2022/07/03 01:28:59;;;;;;;3.57;3.27;;;;;;;16.04;100.00;98341.13;5133800;27;20675;-75
2022/07/03 01:31:27;;;;;;;3.67;3.30;;;;;;;16.00;100.00;98343.38;5131682;27;20212;-75
2022/07/03 01:33:54;;;;;;;4.07;3.60;;;;;;;16.04;100.00;98338.47;5133956;27;20296;-76
2022/07/03 01:36:24;;;;;;;5.33;3.10;;;;;;;16.10;100.00;98335.25;5133486;27;20759;-75
2022/07/03 01:38:52;;;;;;;4.13;3.43;;;;;;;16.06;100.00;98342.84;5131920;27;20212;-76
2022/07/03 01:41:18;;;;;;;3.57;3.27;;;;;;;15.92;100.00;98340.53;5134052;27;20213;-76
2022/07/03 01:43:49;;;;;;;3.67;3.37;;;;;;;15.86;100.00;98338.41;5133495;27;20213;-75
2022/07/03 01:46:18;;;;;;;3.73;3.33;;;;;;;15.81;100.00;98338.81;5133903;27;20219;-75
2022/07/03 01:48:46;;;;;;;3.90;3.50;;;;;;;15.74;100.00;98337.66;5133500;27;20662;-76
2022/07/03 01:51:15;;;;;;;3.67;3.37;;;;;;;15.74;100.00;98337.66;5133607;27;20688;-75
2022/07/03 01:53:45;;;;;;;3.70;3.10;;;;;;;15.75;100.00;98335.81;5133819;27;20291;-76
2022/07/03 01:56:12;;;;;;;4.37;3.37;;;;;;;15.76;100.00;98337.53;5133567;28;20240;-75
2022/07/03 01:58:39;;;;;;;3.47;3.17;;;;;;;15.78;100.00;98332.91;5133722;27;20209;-75
2022/07/03 02:01:15;;;;;;;4.40;3.20;;;;;;;15.80;100.00;98336.25;5133380;28;20209;-75
2022/07/03 02:03:46;;;;;;;3.53;3.17;;;;;;;15.86;100.00;98335.72;5133563;28;20218;-75
2022/07/03 02:06:22;;;;;;;3.73;3.43;;;;;;;15.93;100.00;98335.06;5131872;28;20221;-76
2022/07/03 02:08:58;;;;;;;4.40;2.80;;;;;;;15.93;100.00;98342.22;5133132;28;20304;-75
2022/07/03 02:11:29;;;;;;;3.47;3.17;;;;;;;15.92;100.00;98324.53;5133482;28;20209;-75
2022/07/03 02:14:07;;;;;;;3.40;3.10;;;;;;;15.86;100.00;98330.41;5133544;28;20210;-75
2022/07/03 02:16:48;;;;;;;3.60;3.20;;;;;;;15.77;100.00;98328.53;5133004;28;20237;-76
2022/07/03 02:19:16;;;;;;;3.53;3.23;;;;;;;15.77;100.00;98328.53;5133489;28;20220;-76
2022/07/03 02:21:48;;;;;;;3.40;3.10;;;;;;;15.73;100.00;98332.44;5133137;28;20213;-75
2022/07/03 02:24:19;;;;;;;4.13;3.17;;;;;;;15.69;100.00;98333.69;5133357;28;20209;-75
2022/07/03 02:26:54;;;;;;;3.77;3.47;;;;;;;15.62;100.00;98327.19;5119934;27;20209;-75
2022/07/03 02:29:26;;;;;;;4.13;3.23;;;;;;;15.55;100.00;98321.56;5137470;27;20215;-75
2022/07/03 02:31:59;;;;;;;3.83;3.53;;;;;;;15.51;100.00;98324.63;5135890;27;20212;-75
2022/07/03 02:34:28;;;;;;;4.37;3.37;;;;;;;15.52;100.00;98316.50;5135685;27;20209;-75
2022/07/03 02:37:00;;;;;;;4.27;3.37;;;;;;;15.57;100.00;98329.44;5137339;27;20267;-77
2022/07/03 02:39:32;;;;;;;3.50;3.20;;;;;;;15.59;100.00;98324.81;5137038;27;20574;-75
2022/07/03 02:42:04;;;;;;;3.83;3.10;;;;;;;15.60;100.00;98321.16;5137006;27;20213;-75
2022/07/03 02:44:35;;;;;;;4.00;3.40;;;;;;;15.64;100.00;98325.25;5123861;27;20212;-75
2022/07/03 02:47:15;;;;;;;3.70;3.40;;;;;;;15.68;100.00;98326.66;5136976;27;20304;-76
2022/07/03 02:49:57;;;;;;;3.67;3.17;;;;;;;15.68;100.00;98334.66;5137306;27;20220;-77
2022/07/03 02:52:31;;;;;;;3.30;3.00;;;;;;;15.66;100.00;98326.81;5124059;27;20220;-76
2022/07/03 02:55:08;;;;;;;3.67;3.37;;;;;;;15.68;100.00;98329.34;5136926;27;20213;-76
2022/07/03 02:57:39;;;;;;;4.60;3.40;;;;;;;15.64;100.00;98330.59;5135272;27;20359;-76
2022/07/03 03:00:07;;;;;;;3.53;3.20;;;;;;;15.62;100.00;98335.19;5136933;27;20216;-76
2022/07/03 03:02:53;;;;;;;3.40;3.10;;;;;;;15.60;100.00;98329.16;5136714;27;20209;-76
2022/07/03 03:05:27;;;;;;;3.50;3.13;;;;;;;15.61;100.00;98334.38;5136519;27;20693;-76
2022/07/03 03:08:12;;;;;;;3.73;3.43;;;;;;;15.61;100.00;98329.03;5136343;27;20220;-76
2022/07/03 03:10:39;;;;;;;4.07;3.30;;;;;;;15.59;100.00;98332.81;5136452;27;20214;-76
2022/07/03 03:13:08;;;;;;;3.63;3.33;;;;;;;15.56;100.00;98336.56;5136593;27;20217;-78
2022/07/03 03:15:36;;;;;;;3.40;3.10;;;;;;;15.57;100.00;98343.59;5136245;27;20730;-77
2022/07/03 03:18:07;;;;;;;3.40;3.00;;;;;;;15.55;100.00;98344.69;5136730;27;20209;-77
2022/07/03 03:20:35;;;;;;;3.63;3.23;;;;;;;15.53;100.00;98339.47;5136555;27;20213;-76
2022/07/03 03:23:20;;;;;;;3.23;3.03;;;;;;;15.51;100.00;98345.94;5133648;27;20571;-77
2022/07/03 03:25:46;;;;;;;3.50;3.20;;;;;;;15.49;100.00;98347.88;5122853;27;20213;-76
2022/07/03 03:28:14;;;;;;;3.47;3.00;;;;;;;15.47;100.00;98347.19;5136516;27;20296;-76
2022/07/03 03:30:41;;;;;;;3.20;2.90;;;;;;;15.46;100.00;98358.81;5136449;27;20216;-77
2022/07/03 03:33:10;;;;;;;3.80;3.50;;;;;;;15.46;100.00;98351.66;5135877;27;20215;-77
2022/07/03 03:35:39;;;;;;;3.73;3.43;;;;;;;15.44;100.00;98348.28;5122604;27;20319;-76
2022/07/03 03:38:05;;;;;;;3.90;3.30;;;;;;;15.41;100.00;98351.19;5136030;27;20249;-77
2022/07/03 03:40:32;;;;;;;3.60;3.30;;;;;;;15.37;100.00;98354.25;5135141;27;20761;-77
2022/07/03 03:42:59;;;;;;;5.73;3.63;;;;;;;15.36;100.00;98352.56;5136013;27;20213;-78
2022/07/03 03:45:26;;;;;;;4.13;3.57;;;;;;;15.34;100.00;98358.00;5122270;27;20296;-78
2022/07/03 03:47:52;;;;;;;4.73;3.43;;;;;;;15.30;100.00;98359.25;5136117;27;20224;-76
2022/07/03 03:50:21;;;;;;;4.17;3.70;;;;;;;15.34;100.00;98354.53;5134252;27;20212;-76
2022/07/03 03:52:48;;;;;;;4.50;3.80;;;;;;;15.36;100.00;98365.88;5135544;27;20754;-76
2022/07/03 03:55:14;;;;;;;3.97;3.53;;;;;;;15.45;100.00;98363.28;5135484;27;20213;-76
2022/07/03 03:57:41;;;;;;;4.03;3.47;;;;;;;15.53;100.00;98354.66;5135509;27;20702;-76
2022/07/03 04:00:08;;;;;;;3.70;3.40;;;;;;;15.55;100.00;98361.53;5135472;27;22060;-76
2022/07/03 04:02:35;;;;;;;3.50;3.20;;;;;;;15.60;100.00;98363.78;5135526;27;20210;-76
2022/07/03 04:05:01;;;;;;;3.27;2.97;;;;;;;15.65;100.00;98364.25;5135698;27;20205;-77
2022/07/03 04:07:29;;;;;;;3.73;3.40;;;;;;;15.66;100.00;98365.94;5135661;27;20210;-76
2022/07/03 04:09:57;;;;;;;2.90;2.70;;;;;;;15.73;100.00;98367.09;5135614;27;20300;-76
2022/07/03 04:12:23;;;;;;;3.97;3.20;;;;;;;15.79;100.00;98355.91;5135474;27;20213;-76
2022/07/03 04:14:50;;;;;;;3.57;3.27;;;;;;;15.83;100.00;98368.81;5135392;27;20304;-76
2022/07/03 04:17:17;;;;;;;3.50;3.20;;;;;;;15.87;100.00;98358.75;5133640;27;20229;-76
2022/07/03 04:19:43;;;;;;;3.23;2.93;;;;;;;15.88;100.00;98365.78;5135320;27;20697;-77
2022/07/03 04:22:10;;;;;;;3.40;3.10;;;;;;;15.93;100.00;98359.06;5134979;27;20580;-76
2022/07/03 04:24:38;;;;;;;3.50;3.20;;;;;;;15.97;100.00;98367.63;5134995;27;20205;-77
2022/07/03 04:27:05;;;;;;;4.93;3.13;;;;;;;16.04;100.00;98367.81;5135239;27;20224;-77
2022/07/03 04:29:32;;;;;;;3.50;3.20;;;;;;;16.12;100.00;98374.31;5135517;27;20210;-75
2022/07/03 04:31:58;;;;;;;3.77;3.37;;;;;;;16.14;100.00;98368.69;5134708;27;20216;-75
2022/07/03 04:34:25;;;;;;;3.07;2.77;;;;;;;16.18;100.00;98378.13;5134981;27;20212;-78
2022/07/03 04:36:51;;;;;;;2.83;2.63;;;;;;;16.21;100.00;98383.16;5134743;27;20241;-78
2022/07/03 04:39:18;;;;;;;3.43;2.90;;;;;;;16.25;100.00;98384.59;5134559;27;20213;-74
2022/07/03 04:41:46;;;;;;;5.27;3.03;;;;;;;16.29;100.00;98388.69;5133168;27;20221;-74
2022/07/03 04:44:12;;;;;;;3.03;2.73;;;;;;;16.33;100.00;98387.44;5134808;27;20213;-74
2022/07/03 04:46:40;;;;;;;3.33;3.03;;;;;;;16.41;100.00;98387.63;5135024;27;20213;-74
2022/07/03 04:49:06;;;;;;;3.07;2.70;;;;;;;16.44;100.00;98398.03;5134822;27;20296;-74
2022/07/03 04:51:33;;;;;;;3.50;2.60;;;;;;;16.46;100.00;98396.06;5134517;27;20209;-74
2022/07/03 04:53:59;;;;;;;2.70;2.50;;;;;;;16.48;100.00;98399.47;5134870;27;20270;-74
2022/07/03 04:56:26;;;;;;;3.10;2.60;;;;;;;16.53;100.00;98396.38;5134403;27;20237;-73
2022/07/03 04:58:54;;;;;;;4.63;2.90;;;;;;;16.93;100.00;98395.31;5134567;27;20210;-73
2022/07/03 05:01:20;;;;;;;3.20;2.90;;;;;;;17.68;100.00;98393.63;5134810;27;20617;-73
2022/07/03 05:03:47;;;;;;;3.93;3.03;;;;;;;18.07;100.00;98397.91;5131678;27;20697;-73
2022/07/03 05:06:13;;;;;;;3.50;2.73;;;;;;;18.90;100.00;98405.84;5134419;27;20216;-73
2022/07/03 05:08:40;;;;;;;2.53;2.33;;;;;;;19.98;94.76;98406.31;5132831;27;20213;-73
2022/07/03 05:11:06;;;;;;;3.20;2.60;;;;;;;21.05;87.87;98400.28;5134393;27;20231;-73
2022/07/03 05:13:33;;;;;;;2.90;2.67;;;;;;;22.08;82.09;98412.13;5134037;27;20209;-73
2022/07/03 05:16:01;;;;;;;2.30;2.10;;;;;;;23.01;76.84;98410.31;5134225;27;20217;-73
2022/07/03 05:18:27;;;;;;;4.03;2.60;;;;;;;23.83;71.21;98405.00;5134428;27;20312;-71
2022/07/03 05:20:54;;;;;;;3.00;2.80;;;;;;;24.46;66.58;98402.72;5134480;27;20208;-73
2022/07/03 05:23:20;;;;;;;2.60;2.40;;;;;;;24.99;63.71;98407.81;5134242;27;20584;-72
2022/07/03 05:25:47;;;;;;;2.70;2.47;;;;;;;25.54;61.27;98402.63;5133888;27;20205;-73
2022/07/03 05:28:13;;;;;;;3.33;2.13;;;;;;;26.03;58.59;98408.94;5132827;27;20223;-73
2022/07/03 05:30:40;;;;;;;2.67;2.13;;;;;;;26.49;57.06;98410.13;5132771;27;20300;-72
2022/07/03 05:33:08;;;;;;;2.60;2.20;;;;;;;26.81;55.23;98400.53;5131950;27;20205;-73
2022/07/03 05:35:34;;;;;;;2.50;2.30;;;;;;;27.13;54.17;98408.78;5125608;27;20205;-73
2022/07/03 05:38:01;;;;;;;3.00;2.30;;;;;;;27.46;52.39;98407.06;5132216;27;20687;-73
2022/07/03 05:40:27;;;;;;;2.47;2.00;;;;;;;27.84;51.40;98413.63;5130483;27;20213;-72
2022/07/03 05:42:54;;;;;;;2.90;2.00;;;;;;;28.10;49.50;98408.19;5133364;27;20213;-71
2022/07/03 05:45:20;;;;;;;1.80;1.70;;;;;;;28.37;49.29;98415.31;5132773;27;20627;-71
2022/07/03 05:47:47;;;;;;;2.53;1.90;;;;;;;28.65;48.65;98413.16;5132337;27;20209;-71
2022/07/03 05:50:15;;;;;;;2.83;2.00;;;;;;;28.94;47.89;98415.38;5132897;27;20552;-71
2022/07/03 05:52:41;;;;;;;2.47;2.27;;;;;;;29.18;47.31;98417.41;5132677;27;20313;-71
2022/07/03 05:55:09;;;;;;;2.17;2.00;;;;;;;29.45;46.31;98405.31;5133859;27;20233;-72
2022/07/03 05:57:35;;;;;;;2.83;2.00;;;;;;;29.70;45.73;98411.72;5133451;27;20717;-73
2022/07/03 06:00:02;;;;;;;1.97;1.87;;;;;;;29.92;45.10;98413.00;5131747;27;20673;-73
2022/07/03 06:02:29;;;;;;;2.20;1.70;;;;;;;30.06;44.64;98403.66;5133076;27;20205;-73
2022/07/03 06:04:55;;;;;;;2.17;1.97;;;;;;;30.14;44.66;98411.63;5133941;28;20305;-73
2022/07/03 06:07:23;;;;;;;1.87;1.77;;;;;;;30.25;43.91;98408.16;5133462;28;20224;-73
2022/07/03 06:09:50;;;;;;;2.50;1.90;;;;;;;30.40;43.61;98408.66;5133450;28;20299;-73
2022/07/03 06:12:16;;;;;;;2.30;1.88;;;;;;;30.58;43.46;98414.97;5133559;28;20205;-73
2022/07/03 06:14:43;;;;;;;2.22;1.90;;;;;;;30.89;43.22;98414.88;5133419;28;20721;-73
2022/07/03 06:17:09;;;;;;;2.42;2.00;;;;;;;31.09;42.66;98407.28;5133263;28;20237;-73
2022/07/03 06:19:36;;;;;;;2.20;2.00;;;;;;;31.20;42.03;98408.44;5133219;28;20221;-73
2022/07/03 06:22:03;;;;;;;1.60;1.50;;;;;;;31.23;42.25;98416.16;5133788;28;20582;-73
2022/07/03 06:24:30;;;;;;;2.00;1.80;;;;;;;31.39;42.04;98404.59;5133357;28;20304;-72
2022/07/03 06:26:57;;;;;;;2.83;1.80;;;;;;;31.44;41.35;98404.75;5132041;28;20213;-71
2022/07/03 06:29:25;;;;;;;2.60;2.00;;;;;;;31.43;41.57;98408.53;5133634;28;20213;-70
2022/07/03 06:31:51;;;;;;;1.70;1.60;;;;;;;31.57;41.65;98410.84;5133591;28;20266;-71
2022/07/03 06:34:18;;;;;;;2.90;1.95;;;;;;;31.77;40.71;98405.09;5133346;28;20209;-71
2022/07/03 06:36:44;;;;;;;1.73;1.60;;;;;;;32.01;40.57;98402.22;5133168;28;20241;-72
2022/07/03 06:39:11;;;;;;;2.00;1.80;;;;;;;32.24;40.18;98409.66;5133257;28;20220;-73
2022/07/03 06:41:39;;;;;;;2.00;1.80;;;;;;;32.37;40.01;98406.69;5133298;28;20215;-73
2022/07/03 06:44:05;;;;;;;1.60;1.50;;;;;;;32.51;40.10;98408.13;5125216;28;20213;-73
2022/07/03 06:46:32;;;;;;;1.90;1.65;;;;;;;32.54;39.36;98402.16;5133300;28;20221;-75
2022/07/03 06:48:58;;;;;;;1.70;1.60;;;;;;;32.60;38.92;98412.16;5133304;28;20217;-74
2022/07/03 06:51:25;;;;;;;1.98;1.70;;;;;;;32.58;39.19;98414.31;5132909;28;20225;-74
2022/07/03 06:53:51;;;;;;;1.73;1.63;;;;;;;32.75;39.73;98415.25;5130926;28;20221;-71
2022/07/03 06:56:18;;;;;;;1.92;1.83;;;;;;;32.86;38.68;98414.41;5132971;28;20286;-76
2022/07/03 06:58:45;;;;;;;2.00;1.90;;;;;;;32.86;38.79;98411.69;5133205;28;20216;-74
2022/07/03 07:01:12;;;;;;;2.28;1.90;;;;;;;32.90;38.62;98412.88;5132918;28;20232;-74
2022/07/03 07:03:38;;;;;;;2.03;1.90;;;;;;;32.77;38.73;98418.59;5133077;28;20573;-73
2022/07/03 07:06:05;;;;;;;2.55;1.60;;;;;;;32.57;39.17;98418.13;5133118;28;20209;-73
2022/07/03 07:08:31;;;;;;;1.98;1.60;;;;;;;32.35;39.83;98408.81;5132569;28;20209;-73
2022/07/03 07:10:58;;;;;;;1.95;1.85;;;;;;;31.92;40.20;98413.72;5132961;28;20235;-74
2022/07/03 07:13:25;;;;;;;2.50;1.92;;;;;;;31.37;41.41;98415.75;5132602;27;20213;-74
2022/07/03 07:15:52;;;;;;;2.05;1.85;;;;;;;30.53;44.03;98419.41;5136172;27;20671;-74
2022/07/03 07:18:19;;;;;;;2.05;1.80;;;;;;;29.29;46.78;98416.75;5135439;27;20236;-73
2022/07/03 07:20:46;;;;;;;2.95;1.70;;;;;;;27.98;49.99;98418.88;5135883;27;20583;-73
2022/07/03 07:23:12;;;;;;;1.98;1.88;;;;;;;27.06;54.01;98417.97;5136176;27;20216;-73
2022/07/03 07:25:39;;;;;;;2.10;2.00;;;;;;;26.43;58.89;98420.91;5129976;27;20210;-72
2022/07/03 07:28:05;;;;;;;2.38;2.00;;;;;;;26.07;61.88;98421.06;5129528;27;20214;-73
2022/07/03 07:30:32;;;;;;;2.17;2.07;;;;;;;25.79;61.91;98417.44;5126160;27;20220;-73
2022/07/03 07:33:00;;;;;;;2.57;1.90;;;;;;;25.54;62.92;98416.16;5127776;27;20214;-73
2022/07/03 07:35:26;;;;;;;2.00;1.80;;;;;;;25.42;65.21;98415.00;5136309;27;20636;-73
2022/07/03 07:37:53;;;;;;;2.20;2.00;;;;;;;25.30;64.73;98426.53;5129983;27;20252;-73
2022/07/03 07:40:19;;;;;;;2.00;1.90;;;;;;;25.23;64.82;98420.19;5125818;27;20210;-73
2022/07/03 07:42:46;;;;;;;2.28;2.00;;;;;;;25.23;65.83;98421.00;5127293;27;20214;-73
2022/07/03 07:45:12;;;;;;;2.10;1.90;;;;;;;25.24;63.70;98422.72;5127830;27;20209;-72
2022/07/03 07:47:39;;;;;;;2.97;1.90;;;;;;;25.22;65.23;98427.44;5129571;27;20210;-72
2022/07/03 07:50:08;;;;;;;1.83;1.73;;;;;;;25.25;65.77;98427.13;5126261;27;20220;-72
2022/07/03 07:52:35;;;;;;;2.30;2.10;;;;;;;25.31;65.60;98428.22;5126840;27;20206;-72
2022/07/03 07:55:01;;;;;;;1.83;1.73;;;;;;;25.33;64.97;98420.72;5129727;27;20209;-72
2022/07/03 07:57:35;;;;;;;2.00;1.90;;;;;;;25.39;63.48;98415.41;5129516;27;20610;-73
2022/07/03 08:00:06;;;;;;;2.53;1.90;;;;;;;25.48;65.57;98411.53;5125735;27;20214;-72
2022/07/03 08:05:36;;;;;;;1.80;1.70;;;;;;;25.64;64.53;98408.56;5129049;27;20587;-72
2022/07/03 08:08:03;;;;;;;1.80;1.70;;;;;;;25.74;65.47;98403.69;5125489;27;20214;-72
2022/07/03 08:10:30;;;;;;;2.00;1.85;;;;;;;25.77;62.84;98405.97;5135121;27;20217;-72
2022/07/03 08:12:56;;;;;;;2.00;1.70;;;;;;;25.88;62.04;98408.19;5127180;27;20678;-73
2022/07/03 08:15:23;;;;;;;2.97;1.90;;;;;;;26.01;62.23;98402.91;5127891;27;20221;-74
2022/07/03 08:17:49;;;;;;;1.67;1.57;;;;;;;26.11;60.79;98406.13;5124917;27;20230;-74
2022/07/03 08:20:16;;;;;;;2.87;1.60;;;;;;;26.15;61.32;98401.94;5127920;27;20210;-73
2022/07/03 08:22:44;;;;;;;1.65;1.42;;;;;;;26.22;58.44;98400.13;5128790;27;20689;-73
2022/07/03 08:25:10;;;;;;;2.40;1.42;;;;;;;26.29;51.67;98402.91;5127591;27;20245;-73
2022/07/03 08:27:37;;;;;;;1.63;1.48;;;;;;;26.31;51.81;98398.94;5125364;27;20216;-73
2022/07/03 08:30:04;;;;;;;1.50;1.40;;;;;;;26.36;50.01;98403.78;5127307;27;20214;-74
2022/07/03 08:32:30;;;;;;;1.60;1.50;;;;;;;26.30;49.18;98402.69;5128896;27;20209;-73
2022/07/03 08:34:57;;;;;;;1.40;1.30;;;;;;;26.17;50.58;98405.31;5128741;27;20208;-73
2022/07/03 08:37:23;;;;;;;2.03;1.80;;;;;;;26.19;51.69;98403.25;5129717;27;20250;-72
2022/07/03 08:39:51;;;;;;;1.52;1.42;;;;;;;26.28;51.40;98401.22;5126203;27;20213;-72
2022/07/03 08:42:20;;;;;;;1.50;1.40;;;;;;;26.30;53.33;98394.56;5128479;27;20693;-72
2022/07/03 08:44:47;;;;;;;1.60;1.50;;;;;;;26.43;53.63;98394.66;5128217;27;20675;-73
2022/07/03 08:47:14;;;;;;;1.92;1.45;;;;;;;26.57;51.53;98395.63;5124629;27;20216;-72
2022/07/03 08:49:43;;;;;;;1.52;1.30;;;;;;;26.63;49.37;98389.38;5126812;27;20573;-73
2022/07/03 08:52:10;;;;;;;1.43;1.33;;;;;;;26.68;49.99;98382.31;5128424;27;20210;-73
2022/07/03 08:54:39;;;;;;;1.35;1.25;;;;;;;26.78;52.90;98404.50;5127948;27;20224;-73
2022/07/03 08:57:08;;;;;;;4.68;1.35;;;;;;;26.89;54.40;98379.47;5124635;27;20209;-73
2022/07/03 08:59:38;;;;;;;1.40;1.30;;;;;;;26.89;49.75;98378.66;5126791;27;20274;-73
2022/07/03 09:02:05;;;;;;;1.20;1.10;;;;;;;27.01;50.75;98382.47;5128406;27;20213;-73
2022/07/03 09:04:32;;;;;;;1.73;1.40;;;;;;;27.06;50.03;98382.69;5125352;27;20821;-73
2022/07/03 09:06:59;;;;;;;0.82;0.75;;;;;;;27.08;46.37;98374.13;5124393;27;20321;-73
2022/07/03 09:09:26;;;;;;;1.88;0.80;;;;;;;27.12;42.87;98380.00;5133482;27;20679;-73
2022/07/03 09:11:53;;;;;;;1.45;0.98;;;;;;;27.15;43.11;98387.72;5134802;27;20221;-73
2022/07/03 09:14:21;;;;;;;1.67;1.00;;;;;;;27.31;40.08;98379.22;5134638;27;20223;-72
2022/07/03 09:16:47;;;;;;;0.95;0.95;;;;;;;27.24;39.88;98370.25;5134347;27;20701;-73
2022/07/03 09:19:14;;;;;;;0.90;0.90;;;;;;;27.26;42.01;98379.00;5134424;27;20241;-73
2022/07/03 09:21:43;;;;;;;0.80;0.80;;;;;;;27.36;43.03;98378.66;5134569;27;20215;-73
2022/07/03 09:24:11;;;;;;;0.80;0.80;;;;;;;27.27;42.10;98378.00;5134423;27;20209;-72
2022/07/03 09:26:51;;;;;;;1.13;0.80;;;;;;;27.29;42.20;98381.31;5134431;27;20209;-73
2022/07/03 09:29:18;;;;;;;0.88;0.88;;;;;;;27.39;43.65;98379.06;5134190;27;20670;-73
2022/07/03 09:31:55;;;;;;;0.80;0.80;;;;;;;27.35;41.72;98375.06;5132858;27;20205;-73
2022/07/03 09:34:22;;;;;;;0.75;0.75;;;;;;;27.51;41.68;98380.13;5134088;27;20205;-74
2022/07/03 09:36:51;;;;;;;2.17;1.00;;;;;;;27.58;39.79;98378.25;5133359;27;20242;-73
2022/07/03 09:39:20;;;;;;;0.98;0.88;;;;;;;27.65;40.56;98370.94;5134198;27;20622;-74
2022/07/03 09:41:58;;;;;;;1.10;1.00;;;;;;;27.76;40.00;98368.44;5134142;27;20206;-74
2022/07/03 09:44:36;;;;;;;1.10;1.00;;;;;;;27.87;40.20;98367.00;5134070;27;20205;-73
2022/07/03 09:47:12;;;;;;;2.05;1.13;;;;;;;27.93;40.91;98375.16;5133789;27;20225;-73
2022/07/03 09:49:46;;;;;;;0.80;0.70;;;;;;;28.01;39.21;98372.22;5134099;27;20213;-73
2022/07/03 09:52:30;;;;;;;1.65;0.70;;;;;;;27.95;38.95;98372.25;5133777;27;20250;-74
2022/07/03 09:54:57;;;;;;;0.65;0.65;;;;;;;28.09;37.26;98363.88;5134222;27;20209;-74
2022/07/03 09:57:25;;;;;;;0.77;0.77;;;;;;;28.00;37.23;98365.13;5132148;27;20209;-74
2022/07/03 10:00:10;;;;;;;0.68;0.68;;;;;;;27.86;38.44;98354.47;5133752;27;20239;-74
2022/07/03 10:02:52;;;;;;;1.52;0.95;;;;;;;27.84;39.40;98356.56;5133697;28;20209;-74
2022/07/03 10:05:19;;;;;;;0.70;0.70;;;;;;;27.90;40.32;98363.88;5133567;28;20289;-73
2022/07/03 10:07:54;;;;;;;1.40;1.00;;;;;;;27.84;39.35;98360.13;5133818;28;20209;-74
2022/07/03 10:10:22;;;;;;;0.90;0.90;;;;;;;27.87;39.92;98358.84;5133941;28;20299;-75
2022/07/03 10:12:51;;;;;;;1.60;1.00;;;;;;;27.96;41.92;98357.63;5133708;28;20213;-74
2022/07/03 10:15:18;;;;;;;1.10;0.85;;;;;;;28.10;42.36;98353.84;5133579;28;20258;-73
2022/07/03 10:17:48;;;;;;;1.67;1.23;;;;;;;28.09;41.27;98358.44;5133490;28;20235;-74
2022/07/03 10:20:16;;;;;;;1.52;1.00;;;;;;;28.20;42.47;98357.78;5133827;28;20340;-74
2022/07/03 10:22:46;;;;;;;1.05;0.95;;;;;;;28.27;42.21;98358.63;5132098;28;20213;-74
2022/07/03 10:25:14;;;;;;;2.75;0.88;;;;;;;28.36;42.67;98354.66;5133507;28;20213;-74
2022/07/03 10:27:42;;;;;;;1.02;0.90;;;;;;;28.35;42.88;98346.69;5133479;28;20671;-74
2022/07/03 10:30:09;;;;;;;0.95;0.95;;;;;;;28.40;41.28;98355.06;5133784;28;20216;-74
2022/07/03 10:32:38;;;;;;;1.02;1.00;;;;;;;28.30;40.64;98357.38;5133411;28;20293;-74
2022/07/03 10:35:08;;;;;;;1.52;1.00;;;;;;;28.32;40.77;98358.00;5133294;28;20659;-74
2022/07/03 10:37:42;;;;;;;1.45;1.00;;;;;;;28.54;40.32;98356.69;5133397;28;20237;-73
2022/07/03 10:46:11;;;;;;;1.33;1.20;;;;;;;28.25;44.04;98357.16;5133101;28;20690;-73
2022/07/03 10:49:01;;;;;;;1.67;1.20;;;;;;;28.39;48.22;98358.84;5133158;27;20213;-73
2022/07/03 10:51:31;;;;;;;1.10;1.00;;;;;;;28.49;44.53;98342.94;5136869;27;20296;-74
2022/07/03 10:54:14;;;;;;;2.15;1.10;;;;;;;28.50;42.81;98350.84;5136844;27;20304;-72
2022/07/03 10:57:06;;;;;;;1.23;1.10;;;;;;;28.57;42.23;98345.41;5136791;27;20217;-74
2022/07/03 11:00:16;;;;;;;1.23;0.80;;;;;;;28.59;40.61;98335.97;5136976;27;20244;-76
2022/07/03 11:02:44;;;;;;;1.70;1.05;;;;;;;28.66;41.12;98342.22;5118089;27;20670;-73
2022/07/03 11:05:18;;;;;;;1.38;1.08;;;;;;;28.59;40.84;98337.84;5136573;27;20205;-74
2022/07/03 11:08:07;;;;;;;1.00;1.00;;;;;;;28.62;40.47;98340.16;5136763;27;20217;-74
2022/07/03 11:10:40;;;;;;;1.05;1.05;;;;;;;28.54;39.05;98330.34;5129017;27;20558;-75
2022/07/03 11:13:09;;;;;;;1.00;0.90;;;;;;;28.65;41.26;98331.56;5136912;27;20214;-75
2022/07/03 11:15:39;;;;;;;1.30;1.00;;;;;;;28.60;42.99;98323.19;5135243;27;20213;-74
2022/07/03 11:18:14;;;;;;;1.08;0.95;;;;;;;28.61;40.47;98330.34;5137013;27;20593;-74
2022/07/03 11:21:03;;;;;;;1.20;1.10;;;;;;;28.45;42.47;98320.75;5136764;27;20211;-74
2022/07/03 11:23:45;;;;;;;1.00;1.00;;;;;;;28.51;43.30;98319.91;5136731;27;20746;-74
2022/07/03 11:26:23;;;;;;;1.25;1.15;;;;;;;28.44;41.98;98308.19;5136521;27;20270;-74
2022/07/03 11:28:51;;;;;;;0.90;0.90;;;;;;;28.71;42.10;98311.66;5136558;27;20205;-73
2022/07/03 11:31:19;;;;;;;1.08;0.98;;;;;;;28.69;40.59;98313.75;5136869;27;20220;-73
2022/07/03 11:33:46;;;;;;;1.08;0.95;;;;;;;28.75;40.30;98313.75;5136802;27;20213;-73
2022/07/03 11:36:26;;;;;;;1.17;1.08;;;;;;;28.90;40.70;98313.44;5136645;27;20210;-73
2022/07/03 11:39:09;;;;;;;1.98;1.00;;;;;;;28.80;43.51;98307.66;5136545;27;20236;-74
2022/07/03 11:41:45;;;;;;;1.10;1.00;;;;;;;28.74;43.93;98308.50;5134952;27;20213;-73
2022/07/03 11:44:17;;;;;;;1.20;1.10;;;;;;;28.75;42.40;98302.00;5136359;27;20669;-73
2022/07/03 11:46:49;;;;;;;2.05;1.88;;;;;;;28.83;41.76;98309.91;5136128;27;20220;-74
2022/07/03 11:49:17;;;;;;;1.13;0.95;;;;;;;28.98;41.62;98300.44;5136313;27;20217;-73